sensor_id;sensor_type;location;lat;lon;timestamp;temperature;humidity
14016;DHT22;7083;48.854;9.158;2023-08-08T01:31:54;13.30;99.90
14016;DHT22;7083;48.854;9.158;2023-08-08T01:36:51;13.70;99.90
14016;DHT22;7083;48.854;9.158;2023-08-08T01:39:25;13.80;99.90
14016;DHT22;7083;48.854;9.158;2023-08-08T01:41:54;13.80;99.90
14016;DHT22;7083;48.854;9.158;2023-08-08T01:44:22;13.80;99.90
14016;DHT22;7083;48.854;9.158;2023-08-08T01:46:50;13.90;99.90
14016;DHT22;7083;48.854;9.158;2023-08-08T01:49:17;13.90;99.90
14016;DHT22;7083;48.854;9.158;2023-08-08T01:51:43;13.90;99.90
14016;DHT22;7083;48.854;9.158;2023-08-08T01:54:10;13.90;99.90
14016;DHT22;7083;48.854;9.158;2023-08-08T01:56:37;13.90;99.90
14016;DHT22;7083;48.854;9.158;2023-08-08T03:29:56;14.00;99.90
14016;DHT22;7083;48.854;9.158;2023-08-08T05:03:13;12.90;99.90
14016;DHT22;7083;48.854;9.158;2023-08-08T05:08:08;13.40;99.90
14016;DHT22;7083;48.854;9.158;2023-08-08T05:10:34;13.40;99.90
14016;DHT22;7083;48.854;9.158;2023-08-08T05:13:01;13.40;99.90
14016;DHT22;7083;48.854;9.158;2023-08-08T05:15:28;13.40;99.90
14016;DHT22;7083;48.854;9.158;2023-08-08T05:17:55;13.50;99.90
14016;DHT22;7083;48.854;9.158;2023-08-08T05:20:22;13.50;99.90
14016;DHT22;7083;48.854;9.158;2023-08-08T05:22:48;13.50;99.90
14016;DHT22;7083;48.854;9.158;2023-08-08T05:25:16;13.60;99.90
14016;DHT22;7083;48.854;9.158;2023-08-08T05:27:43;13.60;99.90
14016;DHT22;7083;48.854;9.158;2023-08-08T05:30:10;13.70;99.90
14016;DHT22;7083;48.854;9.158;2023-08-08T05:32:37;13.70;99.90
14016;DHT22;7083;48.854;9.158;2023-08-08T05:35:05;13.70;99.90
14016;DHT22;7083;48.854;9.158;2023-08-08T05:37:32;13.70;99.90
14016;DHT22;7083;48.854;9.158;2023-08-08T05:39:58;13.80;99.90
14016;DHT22;7083;48.854;9.158;2023-08-08T05:42:26;13.80;99.90
14016;DHT22;7083;48.854;9.158;2023-08-08T05:44:53;13.90;99.90
14016;DHT22;7083;48.854;9.158;2023-08-08T05:47:20;13.90;99.90
14016;DHT22;7083;48.854;9.158;2023-08-08T05:49:46;13.90;99.90
14016;DHT22;7083;48.854;9.158;2023-08-08T05:52:13;14.00;99.90
14016;DHT22;7083;48.854;9.158;2023-08-08T05:54:40;14.00;99.90
14016;DHT22;7083;48.854;9.158;2023-08-08T05:57:07;14.10;99.90
14016;DHT22;7083;48.854;9.158;2023-08-08T05:59:34;14.00;99.90
14016;DHT22;7083;48.854;9.158;2023-08-08T06:02:01;14.10;99.90
14016;DHT22;7083;48.854;9.158;2023-08-08T06:04:28;14.10;99.90
14016;DHT22;7083;48.854;9.158;2023-08-08T06:06:54;14.20;99.90
14016;DHT22;7083;48.854;9.158;2023-08-08T06:09:21;14.20;99.90
14016;DHT22;7083;48.854;9.158;2023-08-08T06:11:48;14.20;99.90
14016;DHT22;7083;48.854;9.158;2023-08-08T06:14:14;14.30;99.90
14016;DHT22;7083;48.854;9.158;2023-08-08T06:16:43;14.40;99.90
14016;DHT22;7083;48.854;9.158;2023-08-08T06:19:11;14.40;99.90
14016;DHT22;7083;48.854;9.158;2023-08-08T06:21:40;14.50;99.90
14016;DHT22;7083;48.854;9.158;2023-08-08T06:24:07;14.50;99.90
14016;DHT22;7083;48.854;9.158;2023-08-08T06:26:33;14.60;99.90
14016;DHT22;7083;48.854;9.158;2023-08-08T06:29:00;14.70;99.90
14016;DHT22;7083;48.854;9.158;2023-08-08T06:31:27;14.80;99.90
14016;DHT22;7083;48.854;9.158;2023-08-08T06:33:55;15.00;99.90
14016;DHT22;7083;48.854;9.158;2023-08-08T06:36:21;15.10;99.90
14016;DHT22;7083;48.854;9.158;2023-08-08T06:38:48;15.10;99.90
14016;DHT22;7083;48.854;9.158;2023-08-08T06:41:15;15.20;99.90
14016;DHT22;7083;48.854;9.158;2023-08-08T06:43:41;15.20;99.90
14016;DHT22;7083;48.854;9.158;2023-08-08T06:46:08;15.30;99.90
14016;DHT22;7083;48.854;9.158;2023-08-08T06:48:35;15.30;99.90
14016;DHT22;7083;48.854;9.158;2023-08-08T06:51:03;15.40;99.90
14016;DHT22;7083;48.854;9.158;2023-08-08T06:55:57;15.40;99.90
14016;DHT22;7083;48.854;9.158;2023-08-08T08:09:51;15.60;99.90
14016;DHT22;7083;48.854;9.158;2023-08-08T08:12:18;19.10;91.70
14016;DHT22;7083;48.854;9.158;2023-08-08T08:14:45;19.20;91.60
14016;DHT22;7083;48.854;9.158;2023-08-08T08:17:13;19.20;90.80
14016;DHT22;7083;48.854;9.158;2023-08-08T08:19:40;19.20;90.50
14016;DHT22;7083;48.854;9.158;2023-08-08T08:22:07;19.30;90.40
14016;DHT22;7083;48.854;9.158;2023-08-08T08:24:34;19.30;90.10
14016;DHT22;7083;48.854;9.158;2023-08-08T08:27:00;19.40;90.30
14016;DHT22;7083;48.854;9.158;2023-08-08T08:29:27;19.40;90.20
14016;DHT22;7083;48.854;9.158;2023-08-08T08:31:54;19.40;90.60
14016;DHT22;7083;48.854;9.158;2023-08-08T08:34:22;19.40;90.70
14016;DHT22;7083;48.854;9.158;2023-08-08T08:36:48;19.40;90.40
14016;DHT22;7083;48.854;9.158;2023-08-08T08:39:15;19.50;90.10
14016;DHT22;7083;48.854;9.158;2023-08-08T08:41:45;19.40;88.60
14016;DHT22;7083;48.854;9.158;2023-08-08T08:44:14;19.50;90.10
14016;DHT22;7083;48.854;9.158;2023-08-08T08:46:42;19.50;88.90
14016;DHT22;7083;48.854;9.158;2023-08-08T08:49:11;19.60;88.70
14016;DHT22;7083;48.854;9.158;2023-08-08T08:51:39;19.70;89.60
14016;DHT22;7083;48.854;9.158;2023-08-08T08:54:06;19.70;86.90
14016;DHT22;7083;48.854;9.158;2023-08-08T08:56:33;19.70;84.30
14016;DHT22;7083;48.854;9.158;2023-08-08T08:59:00;19.70;84.30
14016;DHT22;7083;48.854;9.158;2023-08-08T09:01:27;19.60;85.00
14016;DHT22;7083;48.854;9.158;2023-08-08T09:03:54;19.60;83.70
14016;DHT22;7083;48.854;9.158;2023-08-08T09:06:22;19.60;84.20
14016;DHT22;7083;48.854;9.158;2023-08-08T09:08:51;19.60;85.10
14016;DHT22;7083;48.854;9.158;2023-08-08T09:11:18;19.80;83.60
14016;DHT22;7083;48.854;9.158;2023-08-08T09:13:44;20.00;83.30
14016;DHT22;7083;48.854;9.158;2023-08-08T09:16:12;20.10;82.70
14016;DHT22;7083;48.854;9.158;2023-08-08T09:18:40;20.20;80.90
14016;DHT22;7083;48.854;9.158;2023-08-08T09:21:08;20.30;80.30
14016;DHT22;7083;48.854;9.158;2023-08-08T09:23:36;20.50;79.80
14016;DHT22;7083;48.854;9.158;2023-08-08T09:26:04;20.60;78.70
14016;DHT22;7083;48.854;9.158;2023-08-08T09:28:31;20.60;79.60
14016;DHT22;7083;48.854;9.158;2023-08-08T09:30:58;20.60;80.60
14016;DHT22;7083;48.854;9.158;2023-08-08T09:33:28;20.70;79.60
14016;DHT22;7083;48.854;9.158;2023-08-08T09:35:55;20.70;74.10
14016;DHT22;7083;48.854;9.158;2023-08-08T09:38:22;20.70;74.70
14016;DHT22;7083;48.854;9.158;2023-08-08T09:40:50;20.60;74.90
14016;DHT22;7083;48.854;9.158;2023-08-08T09:43:18;20.60;76.30
14016;DHT22;7083;48.854;9.158;2023-08-08T09:45:47;20.70;76.50
14016;DHT22;7083;48.854;9.158;2023-08-08T09:48:14;20.70;75.40
14016;DHT22;7083;48.854;9.158;2023-08-08T09:50:43;20.80;73.40
14016;DHT22;7083;48.854;9.158;2023-08-08T09:53:11;20.80;74.90
14016;DHT22;7083;48.854;9.158;2023-08-08T09:55:38;20.80;74.30
14016;DHT22;7083;48.854;9.158;2023-08-08T09:58:05;20.90;74.80
14016;DHT22;7083;48.854;9.158;2023-08-08T10:00:35;21.00;73.50
14016;DHT22;7083;48.854;9.158;2023-08-08T10:03:02;21.00;74.50
14016;DHT22;7083;48.854;9.158;2023-08-08T10:05:30;21.00;75.00
14016;DHT22;7083;48.854;9.158;2023-08-08T10:07:58;21.00;73.10
14016;DHT22;7083;48.854;9.158;2023-08-08T10:10:24;21.00;73.00
14016;DHT22;7083;48.854;9.158;2023-08-08T10:12:52;21.00;72.50
14016;DHT22;7083;48.854;9.158;2023-08-08T10:15:19;21.10;73.60
14016;DHT22;7083;48.854;9.158;2023-08-08T10:17:55;21.10;72.30
14016;DHT22;7083;48.854;9.158;2023-08-08T10:20:24;21.30;73.20
14016;DHT22;7083;48.854;9.158;2023-08-08T10:22:52;21.50;74.00
14016;DHT22;7083;48.854;9.158;2023-08-08T10:25:23;21.50;71.40
14016;DHT22;7083;48.854;9.158;2023-08-08T10:28:01;21.70;70.90
14016;DHT22;7083;48.854;9.158;2023-08-08T10:30:29;21.70;69.90
14016;DHT22;7083;48.854;9.158;2023-08-08T10:32:58;21.70;69.80
14016;DHT22;7083;48.854;9.158;2023-08-08T10:35:35;21.70;71.10
14016;DHT22;7083;48.854;9.158;2023-08-08T10:38:08;21.70;69.30
14016;DHT22;7083;48.854;9.158;2023-08-08T10:40:35;21.80;68.30
14016;DHT22;7083;48.854;9.158;2023-08-08T10:43:09;21.70;68.30
14016;DHT22;7083;48.854;9.158;2023-08-08T10:45:37;21.70;70.10
14016;DHT22;7083;48.854;9.158;2023-08-08T10:48:10;21.60;66.80
14016;DHT22;7083;48.854;9.158;2023-08-08T10:50:38;21.50;67.60
14016;DHT22;7083;48.854;9.158;2023-08-08T10:53:08;21.50;67.00
14016;DHT22;7083;48.854;9.158;2023-08-08T10:55:36;21.40;69.60
14016;DHT22;7083;48.854;9.158;2023-08-08T10:58:05;21.40;69.80
14016;DHT22;7083;48.854;9.158;2023-08-08T11:00:34;21.50;69.20
14016;DHT22;7083;48.854;9.158;2023-08-08T11:03:02;21.40;70.50
14016;DHT22;7083;48.854;9.158;2023-08-08T11:05:32;21.40;67.80
14016;DHT22;7083;48.854;9.158;2023-08-08T11:08:00;21.30;69.00
14016;DHT22;7083;48.854;9.158;2023-08-08T11:10:27;21.30;68.40
14016;DHT22;7083;48.854;9.158;2023-08-08T11:12:57;21.30;68.00
14016;DHT22;7083;48.854;9.158;2023-08-08T11:15:24;21.40;68.00
14016;DHT22;7083;48.854;9.158;2023-08-08T11:17:52;21.40;67.40
14016;DHT22;7083;48.854;9.158;2023-08-08T11:20:20;21.50;69.00
14016;DHT22;7083;48.854;9.158;2023-08-08T11:22:52;21.80;69.40
14016;DHT22;7083;48.854;9.158;2023-08-08T11:25:19;21.90;67.00
14016;DHT22;7083;48.854;9.158;2023-08-08T11:27:49;22.00;67.60
14016;DHT22;7083;48.854;9.158;2023-08-08T11:30:16;22.00;66.60
14016;DHT22;7083;48.854;9.158;2023-08-08T11:32:43;22.10;67.60
14016;DHT22;7083;48.854;9.158;2023-08-08T11:35:09;22.30;68.80
14016;DHT22;7083;48.854;9.158;2023-08-08T11:37:37;22.50;66.90
14016;DHT22;7083;48.854;9.158;2023-08-08T11:40:06;22.70;67.10
14016;DHT22;7083;48.854;9.158;2023-08-08T11:42:34;22.80;66.30
14016;DHT22;7083;48.854;9.158;2023-08-08T11:45:01;23.00;64.30
14016;DHT22;7083;48.854;9.158;2023-08-08T11:47:30;23.00;65.60
14016;DHT22;7083;48.854;9.158;2023-08-08T11:50:01;23.20;66.10
14016;DHT22;7083;48.854;9.158;2023-08-08T11:52:28;23.30;65.60
14016;DHT22;7083;48.854;9.158;2023-08-08T11:54:55;23.40;66.00
14016;DHT22;7083;48.854;9.158;2023-08-08T11:57:23;23.60;63.00
14016;DHT22;7083;48.854;9.158;2023-08-08T11:59:50;23.50;63.60
14016;DHT22;7083;48.854;9.158;2023-08-08T12:02:19;23.60;66.90
14016;DHT22;7083;48.854;9.158;2023-08-08T12:04:45;23.60;62.50
14016;DHT22;7083;48.854;9.158;2023-08-08T12:07:12;23.60;63.60
14016;DHT22;7083;48.854;9.158;2023-08-08T12:09:39;23.80;62.80
14016;DHT22;7083;48.854;9.158;2023-08-08T12:12:06;23.80;60.40
14016;DHT22;7083;48.854;9.158;2023-08-08T12:14:38;23.80;61.50
14016;DHT22;7083;48.854;9.158;2023-08-08T12:17:05;23.80;63.80
14016;DHT22;7083;48.854;9.158;2023-08-08T12:19:32;24.10;62.30
14016;DHT22;7083;48.854;9.158;2023-08-08T12:21:59;24.20;60.10
14016;DHT22;7083;48.854;9.158;2023-08-08T12:24:26;24.40;59.60
14016;DHT22;7083;48.854;9.158;2023-08-08T12:26:52;24.40;59.80
14016;DHT22;7083;48.854;9.158;2023-08-08T12:29:19;24.50;58.50
14016;DHT22;7083;48.854;9.158;2023-08-08T12:31:47;24.50;58.90
14016;DHT22;7083;48.854;9.158;2023-08-08T12:34:14;24.60;59.60
14016;DHT22;7083;48.854;9.158;2023-08-08T12:36:40;24.70;58.40
14016;DHT22;7083;48.854;9.158;2023-08-08T12:39:07;24.70;61.20
14016;DHT22;7083;48.854;9.158;2023-08-08T12:41:36;24.80;59.60
14016;DHT22;7083;48.854;9.158;2023-08-08T12:44:02;24.70;59.70
14016;DHT22;7083;48.854;9.158;2023-08-08T12:46:29;24.80;60.60
14016;DHT22;7083;48.854;9.158;2023-08-08T12:48:57;24.90;60.60
14016;DHT22;7083;48.854;9.158;2023-08-08T12:51:24;24.90;61.30
14016;DHT22;7083;48.854;9.158;2023-08-08T12:53:50;24.90;62.60
14016;DHT22;7083;48.854;9.158;2023-08-08T12:56:17;25.10;63.40
14016;DHT22;7083;48.854;9.158;2023-08-08T12:58:44;25.20;63.10
14016;DHT22;7083;48.854;9.158;2023-08-08T13:01:10;25.30;61.40
14016;DHT22;7083;48.854;9.158;2023-08-08T13:03:37;25.40;60.90
14016;DHT22;7083;48.854;9.158;2023-08-08T13:06:06;25.30;59.30
14016;DHT22;7083;48.854;9.158;2023-08-08T13:08:33;25.20;61.30
14016;DHT22;7083;48.854;9.158;2023-08-08T13:11:01;25.40;61.40
14016;DHT22;7083;48.854;9.158;2023-08-08T13:13:27;25.70;61.00
14016;DHT22;7083;48.854;9.158;2023-08-08T13:15:54;25.80;59.00
14016;DHT22;7083;48.854;9.158;2023-08-08T13:18:21;26.10;59.80
14016;DHT22;7083;48.854;9.158;2023-08-08T13:35:33;26.40;60.50
14016;DHT22;7083;48.854;9.158;2023-08-08T13:38:00;29.90;55.20
14016;DHT22;7083;48.854;9.158;2023-08-08T13:45:23;31.50;52.90
14016;DHT22;7083;48.854;9.158;2023-08-08T13:47:49;33.60;47.20
14016;DHT22;7083;48.854;9.158;2023-08-08T13:50:16;34.10;49.80
14016;DHT22;7083;48.854;9.158;2023-08-08T13:52:43;33.30;46.60
14016;DHT22;7083;48.854;9.158;2023-08-08T13:55:10;32.10;47.20
14016;DHT22;7083;48.854;9.158;2023-08-08T13:57:38;31.90;47.60
14016;DHT22;7083;48.854;9.158;2023-08-08T14:00:05;32.00;48.60
14016;DHT22;7083;48.854;9.158;2023-08-08T14:02:36;32.50;48.60
14016;DHT22;7083;48.854;9.158;2023-08-08T14:05:03;33.10;48.10
14016;DHT22;7083;48.854;9.158;2023-08-08T14:07:31;33.70;46.60
14016;DHT22;7083;48.854;9.158;2023-08-08T14:09:58;33.70;44.80
14016;DHT22;7083;48.854;9.158;2023-08-08T14:12:25;33.30;45.30
14016;DHT22;7083;48.854;9.158;2023-08-08T14:14:53;32.70;45.20
14016;DHT22;7083;48.854;9.158;2023-08-08T14:19:47;32.20;46.70
14016;DHT22;7083;48.854;9.158;2023-08-08T14:22:13;31.30;47.10
14016;DHT22;7083;48.854;9.158;2023-08-08T14:24:41;31.10;47.00
14016;DHT22;7083;48.854;9.158;2023-08-08T14:27:08;30.40;47.90
14016;DHT22;7083;48.854;9.158;2023-08-08T14:29:34;29.70;49.70
14016;DHT22;7083;48.854;9.158;2023-08-08T14:32:03;29.20;53.40
14016;DHT22;7083;48.854;9.158;2023-08-08T14:34:30;28.70;50.90
14016;DHT22;7083;48.854;9.158;2023-08-08T14:36:56;28.30;50.90
14016;DHT22;7083;48.854;9.158;2023-08-08T14:39:23;27.60;54.10
14016;DHT22;7083;48.854;9.158;2023-08-08T14:41:50;26.90;53.90
14016;DHT22;7083;48.854;9.158;2023-08-08T14:44:17;26.30;55.20
14016;DHT22;7083;48.854;9.158;2023-08-08T14:46:44;25.60;57.20
14016;DHT22;7083;48.854;9.158;2023-08-08T14:49:12;25.00;58.50
14016;DHT22;7083;48.854;9.158;2023-08-08T14:51:38;24.50;60.60
14016;DHT22;7083;48.854;9.158;2023-08-08T14:54:05;24.20;61.20
14016;DHT22;7083;48.854;9.158;2023-08-08T14:56:32;23.90;61.30
14016;DHT22;7083;48.854;9.158;2023-08-08T14:58:58;23.70;62.20
14016;DHT22;7083;48.854;9.158;2023-08-08T15:01:25;23.60;62.80
14016;DHT22;7083;48.854;9.158;2023-08-08T15:03:52;23.30;63.30
14016;DHT22;7083;48.854;9.158;2023-08-08T15:06:20;22.90;64.20
14016;DHT22;7083;48.854;9.158;2023-08-08T15:08:46;22.60;65.30
14016;DHT22;7083;48.854;9.158;2023-08-08T15:11:15;22.40;67.10
14016;DHT22;7083;48.854;9.158;2023-08-08T15:13:42;22.10;67.50
14016;DHT22;7083;48.854;9.158;2023-08-08T15:16:08;22.00;67.80
14016;DHT22;7083;48.854;9.158;2023-08-08T15:18:35;22.00;68.50
14016;DHT22;7083;48.854;9.158;2023-08-08T15:21:02;22.80;69.20
14016;DHT22;7083;48.854;9.158;2023-08-08T15:23:30;24.70;66.60
14016;DHT22;7083;48.854;9.158;2023-08-08T15:25:58;26.10;61.90
14016;DHT22;7083;48.854;9.158;2023-08-08T15:28:25;26.50;60.90
14016;DHT22;7083;48.854;9.158;2023-08-08T15:30:51;26.40;59.20
14016;DHT22;7083;48.854;9.158;2023-08-08T15:33:18;26.30;59.50
14016;DHT22;7083;48.854;9.158;2023-08-08T15:35:45;26.00;59.50
14016;DHT22;7083;48.854;9.158;2023-08-08T15:38:11;25.80;60.10
14016;DHT22;7083;48.854;9.158;2023-08-08T15:40:39;25.40;60.20
14016;DHT22;7083;48.854;9.158;2023-08-08T15:43:06;24.80;62.30
14016;DHT22;7083;48.854;9.158;2023-08-08T15:45:33;24.30;63.20
14016;DHT22;7083;48.854;9.158;2023-08-08T15:47:59;23.90;64.30
14016;DHT22;7083;48.854;9.158;2023-08-08T15:50:26;23.40;65.80
14016;DHT22;7083;48.854;9.158;2023-08-08T15:52:53;23.00;67.40
14016;DHT22;7083;48.854;9.158;2023-08-08T15:55:22;22.80;69.10
14016;DHT22;7083;48.854;9.158;2023-08-08T15:57:50;22.70;68.50
14016;DHT22;7083;48.854;9.158;2023-08-08T16:00:17;22.80;67.80
14016;DHT22;7083;48.854;9.158;2023-08-08T16:02:44;23.10;68.90
14016;DHT22;7083;48.854;9.158;2023-08-08T16:05:11;23.60;67.30
14016;DHT22;7083;48.854;9.158;2023-08-08T16:07:37;23.90;67.60
14016;DHT22;7083;48.854;9.158;2023-08-08T16:10:05;24.00;66.40
14016;DHT22;7083;48.854;9.158;2023-08-08T16:12:33;24.30;65.20
14016;DHT22;7083;48.854;9.158;2023-08-08T16:15:02;24.50;62.80
14016;DHT22;7083;48.854;9.158;2023-08-08T16:17:29;24.80;63.00
14016;DHT22;7083;48.854;9.158;2023-08-08T16:19:56;26.30;62.10
14016;DHT22;7083;48.854;9.158;2023-08-08T16:22:25;28.30;57.70
14016;DHT22;7083;48.854;9.158;2023-08-08T16:24:52;29.70;56.20
14016;DHT22;7083;48.854;9.158;2023-08-08T16:27:19;30.40;53.90
14016;DHT22;7083;48.854;9.158;2023-08-08T16:29:45;30.60;53.40
14016;DHT22;7083;48.854;9.158;2023-08-08T16:32:13;30.80;53.40
14016;DHT22;7083;48.854;9.158;2023-08-08T16:34:40;30.70;53.50
14016;DHT22;7083;48.854;9.158;2023-08-08T16:37:07;30.00;53.80
14016;DHT22;7083;48.854;9.158;2023-08-08T16:39:33;29.00;54.50
14016;DHT22;7083;48.854;9.158;2023-08-08T16:42:00;28.00;54.20
14016;DHT22;7083;48.854;9.158;2023-08-08T16:44:28;27.20;57.10
14016;DHT22;7083;48.854;9.158;2023-08-08T16:46:55;26.70;57.30
14016;DHT22;7083;48.854;9.158;2023-08-08T16:49:23;26.40;57.60
14016;DHT22;7083;48.854;9.158;2023-08-08T16:51:50;25.90;59.00
14016;DHT22;7083;48.854;9.158;2023-08-08T16:54:16;25.40;60.20
14016;DHT22;7083;48.854;9.158;2023-08-08T16:56:43;25.20;61.70
14016;DHT22;7083;48.854;9.158;2023-08-08T16:59:10;25.10;62.50
14016;DHT22;7083;48.854;9.158;2023-08-08T17:01:36;24.80;61.80
14016;DHT22;7083;48.854;9.158;2023-08-08T17:04:06;24.50;62.80
14016;DHT22;7083;48.854;9.158;2023-08-08T17:06:34;24.10;62.30
14016;DHT22;7083;48.854;9.158;2023-08-08T17:09:01;23.80;62.00
14016;DHT22;7083;48.854;9.158;2023-08-08T17:11:28;23.60;62.80
14016;DHT22;7083;48.854;9.158;2023-08-08T17:13:54;23.30;64.10
14016;DHT22;7083;48.854;9.158;2023-08-08T17:16:21;23.20;65.00
14016;DHT22;7083;48.854;9.158;2023-08-08T17:18:48;22.90;66.80
14016;DHT22;7083;48.854;9.158;2023-08-08T17:21:15;22.80;65.00
14016;DHT22;7083;48.854;9.158;2023-08-08T17:23:43;22.50;65.30
14016;DHT22;7083;48.854;9.158;2023-08-08T17:26:09;22.30;66.30
14016;DHT22;7083;48.854;9.158;2023-08-08T17:28:36;22.10;67.50
14016;DHT22;7083;48.854;9.158;2023-08-08T17:31:05;21.80;68.00
14016;DHT22;7083;48.854;9.158;2023-08-08T17:33:32;21.60;69.20
14016;DHT22;7083;48.854;9.158;2023-08-08T17:35:58;21.50;69.30
14016;DHT22;7083;48.854;9.158;2023-08-08T17:38:25;21.40;70.00
14016;DHT22;7083;48.854;9.158;2023-08-08T17:40:53;21.30;70.80
14016;DHT22;7083;48.854;9.158;2023-08-08T17:43:20;21.20;70.60
14016;DHT22;7083;48.854;9.158;2023-08-08T17:45:47;21.10;72.90
14016;DHT22;7083;48.854;9.158;2023-08-08T17:48:14;21.10;71.60
14016;DHT22;7083;48.854;9.158;2023-08-08T17:50:41;21.00;71.80
14016;DHT22;7083;48.854;9.158;2023-08-08T17:53:08;20.90;72.40
14016;DHT22;7083;48.854;9.158;2023-08-08T17:55:35;20.70;73.00
14016;DHT22;7083;48.854;9.158;2023-08-08T17:58:05;20.60;74.90
14016;DHT22;7083;48.854;9.158;2023-08-08T18:00:31;20.50;76.90
14016;DHT22;7083;48.854;9.158;2023-08-08T18:02:58;20.40;76.20
14016;DHT22;7083;48.854;9.158;2023-08-08T18:05:24;20.20;77.50
14016;DHT22;7083;48.854;9.158;2023-08-08T18:07:51;20.10;77.50
14016;DHT22;7083;48.854;9.158;2023-08-08T18:10:18;20.00;78.30
14016;DHT22;7083;48.854;9.158;2023-08-08T18:12:45;19.90;78.90
14016;DHT22;7083;48.854;9.158;2023-08-08T18:15:13;19.90;78.50
14016;DHT22;7083;48.854;9.158;2023-08-08T18:17:39;19.70;79.50
14016;DHT22;7083;48.854;9.158;2023-08-08T18:20:07;19.70;79.50
14016;DHT22;7083;48.854;9.158;2023-08-08T18:22:35;19.60;79.80
14016;DHT22;7083;48.854;9.158;2023-08-08T18:25:02;19.50;80.10
14016;DHT22;7083;48.854;9.158;2023-08-08T18:27:29;19.50;80.60
14016;DHT22;7083;48.854;9.158;2023-08-08T18:29:55;19.40;80.50
14016;DHT22;7083;48.854;9.158;2023-08-08T18:32:23;19.30;80.50
14016;DHT22;7083;48.854;9.158;2023-08-08T18:34:52;19.20;81.50
14016;DHT22;7083;48.854;9.158;2023-08-08T18:37:18;19.20;80.70
14016;DHT22;7083;48.854;9.158;2023-08-08T18:39:45;19.20;81.30
14016;DHT22;7083;48.854;9.158;2023-08-08T18:42:12;19.10;81.80
14016;DHT22;7083;48.854;9.158;2023-08-08T18:44:39;19.10;82.30
14016;DHT22;7083;48.854;9.158;2023-08-08T18:47:05;19.00;83.30
14016;DHT22;7083;48.854;9.158;2023-08-08T18:49:33;18.90;83.80
14016;DHT22;7083;48.854;9.158;2023-08-08T18:52:00;18.80;84.00
14016;DHT22;7083;48.854;9.158;2023-08-08T18:54:27;18.70;84.20
14016;DHT22;7083;48.854;9.158;2023-08-08T18:56:54;18.60;85.60
14016;DHT22;7083;48.854;9.158;2023-08-08T18:59:21;18.50;85.30
14016;DHT22;7083;48.854;9.158;2023-08-08T19:01:48;18.50;85.80
14016;DHT22;7083;48.854;9.158;2023-08-08T19:04:15;18.40;86.60
14016;DHT22;7083;48.854;9.158;2023-08-08T19:06:43;18.40;86.90
14016;DHT22;7083;48.854;9.158;2023-08-08T19:09:09;18.40;87.30
14016;DHT22;7083;48.854;9.158;2023-08-08T19:11:36;18.30;88.00
14016;DHT22;7083;48.854;9.158;2023-08-08T19:14:04;18.30;88.30
14016;DHT22;7083;48.854;9.158;2023-08-08T19:16:30;18.20;88.60
14016;DHT22;7083;48.854;9.158;2023-08-08T19:18:59;18.20;88.90
14016;DHT22;7083;48.854;9.158;2023-08-08T19:21:25;18.10;88.60
14016;DHT22;7083;48.854;9.158;2023-08-08T19:23:54;18.10;88.40
14016;DHT22;7083;48.854;9.158;2023-08-08T19:26:20;18.10;88.50
14016;DHT22;7083;48.854;9.158;2023-08-08T19:28:47;18.00;88.60
14016;DHT22;7083;48.854;9.158;2023-08-08T19:31:14;18.00;88.80
14016;DHT22;7083;48.854;9.158;2023-08-08T19:33:41;18.00;88.30
14016;DHT22;7083;48.854;9.158;2023-08-08T19:36:07;18.10;88.70
14016;DHT22;7083;48.854;9.158;2023-08-08T19:38:35;18.00;89.60
14016;DHT22;7083;48.854;9.158;2023-08-08T19:41:03;18.00;89.90
14016;DHT22;7083;48.854;9.158;2023-08-08T19:43:30;18.00;90.20
14016;DHT22;7083;48.854;9.158;2023-08-08T19:45:57;17.90;90.60
14016;DHT22;7083;48.854;9.158;2023-08-08T19:48:23;17.90;91.00
14016;DHT22;7083;48.854;9.158;2023-08-08T19:50:50;17.90;90.80
14016;DHT22;7083;48.854;9.158;2023-08-08T19:53:17;17.80;91.00
14016;DHT22;7083;48.854;9.158;2023-08-08T19:55:45;17.80;91.30
14016;DHT22;7083;48.854;9.158;2023-08-08T19:58:13;17.80;91.60
14016;DHT22;7083;48.854;9.158;2023-08-08T20:00:42;17.70;91.90
14016;DHT22;7083;48.854;9.158;2023-08-08T20:03:08;17.70;92.40
14016;DHT22;7083;48.854;9.158;2023-08-08T20:05:35;17.60;92.50
14016;DHT22;7083;48.854;9.158;2023-08-08T20:08:02;17.60;92.80
14016;DHT22;7083;48.854;9.158;2023-08-08T20:10:29;17.50;93.30
14016;DHT22;7083;48.854;9.158;2023-08-08T20:12:56;17.50;93.50
